Airport View

Enter AWOS ICAO identifier for current METAR.

ex. KFNL

PAGA 191856Z AUTO 23007KT 10SM OVC120 18/09 A3014

19 Jun 2019 19:24

Frequency: 132.525

Phone: 907-656-2483

Other Area AWOS: PARY - PAKV - PAHL - PAIM

TAF PAGA 191740Z 1918/2018 22004KT P6SM BKN080 FM192000 21006KT P6SM VCTS BKN050CB FM200700 22004KT P6SM SCT050 BKN100